createdAt,value
2019-04-10T00:00:45.800Z,11.17
2019-04-10T00:03:25.694Z,10.73
2019-04-10T00:05:42.607Z,11.33
2019-04-10T00:08:10.226Z,10.33
2019-04-10T00:10:38.294Z,10.63
2019-04-10T00:13:06.682Z,10.17
2019-04-10T00:15:34.715Z,10.20
2019-04-10T00:18:02.231Z,10.07
2019-04-10T00:20:29.582Z,9.87
2019-04-10T00:22:56.868Z,9.30
2019-04-10T00:25:24.454Z,9.50
2019-04-10T00:27:52.735Z,9.23
2019-04-10T00:30:20.769Z,9.47
2019-04-10T00:32:48.196Z,9.80
2019-04-10T00:35:15.524Z,9.70
2019-04-10T00:37:42.919Z,10.27
2019-04-10T00:40:10.960Z,9.67
2019-04-10T00:42:38.356Z,10.10
2019-04-10T00:45:06.040Z,9.93
2019-04-10T00:47:33.358Z,10.73
2019-04-10T00:50:00.670Z,9.17
2019-04-10T00:52:28.213Z,9.60
2019-04-10T00:54:55.607Z,10.30
2019-04-10T00:57:23.541Z,9.60
2019-04-10T00:59:51.074Z,9.50
2019-04-10T01:02:18.584Z,9.57
2019-04-10T01:04:46.719Z,10.03
2019-04-10T01:07:14.786Z,10.20
2019-04-10T01:09:42.199Z,9.73
2019-04-10T01:12:09.847Z,9.90
2019-04-10T01:14:38.084Z,9.40
2019-04-10T01:17:06.220Z,9.70
2019-04-10T01:19:34.359Z,9.00
2019-04-10T01:22:01.878Z,9.73
2019-04-10T01:24:30.611Z,9.93
2019-04-10T01:26:57.904Z,9.07
2019-04-10T01:29:25.258Z,8.80
2019-04-10T01:31:53.136Z,8.40
2019-04-10T01:34:21.089Z,7.80
2019-04-10T01:36:48.510Z,8.07
2019-04-10T01:39:20.920Z,8.20
2019-04-10T01:41:48.227Z,8.03
2019-04-10T01:44:15.526Z,8.57
2019-04-10T01:46:42.845Z,8.87
2019-04-10T01:49:10.329Z,9.00
2019-04-10T01:51:37.798Z,8.20
2019-04-10T01:54:05.101Z,8.00
2019-04-10T01:56:35.122Z,6.93
2019-04-10T01:59:01.925Z,7.57
2019-04-10T02:01:34.652Z,7.70
2019-04-10T02:04:02.656Z,6.63
2019-04-10T02:06:30.124Z,7.13
2019-04-10T02:08:58.352Z,7.37
2019-04-10T02:11:28.054Z,6.87
2019-04-10T02:13:56.713Z,7.10
2019-04-10T02:16:25.537Z,5.57
2019-04-10T02:18:54.057Z,6.93
2019-04-10T02:21:21.510Z,7.03
2019-04-10T02:23:48.852Z,7.27
2019-04-10T02:26:17.094Z,7.00
2019-04-10T02:28:44.978Z,7.33
2019-04-10T02:31:12.721Z,7.13
2019-04-10T02:33:41.241Z,7.07
2019-04-10T02:36:08.650Z,6.73
2019-04-10T02:38:53.325Z,7.17
2019-04-10T02:41:05.834Z,7.13
2019-04-10T02:43:33.708Z,6.83
2019-04-10T02:46:02.219Z,7.00
2019-04-10T02:48:31.895Z,6.60
2019-04-10T02:50:59.663Z,6.47
2019-04-10T02:53:27.662Z,7.77
2019-04-10T02:55:55.783Z,7.37
2019-04-10T02:58:24.712Z,6.97
2019-04-10T03:00:54.460Z,7.80
2019-04-10T03:03:22.419Z,7.13
2019-04-10T03:05:50.981Z,8.13
2019-04-10T03:08:35.962Z,7.27
2019-04-10T03:10:53.771Z,7.10
2019-04-10T03:13:17.917Z,7.30
2019-04-10T03:15:45.303Z,7.73
2019-04-10T03:18:12.976Z,7.70
2019-04-10T03:20:40.579Z,7.17
2019-04-10T03:23:08.009Z,8.03
2019-04-10T03:25:35.398Z,8.27
2019-04-10T03:28:03.009Z,9.60
2019-04-10T03:30:34.073Z,11.00
2019-04-10T03:33:12.283Z,12.37
2019-04-10T03:35:43.054Z,12.53
2019-04-10T03:38:11.671Z,13.00
2019-04-10T03:40:39.673Z,14.43
2019-04-10T03:43:07.691Z,14.10
2019-04-10T03:45:35.194Z,14.57
2019-04-10T03:48:02.544Z,14.80
2019-04-10T03:50:30.017Z,15.33
2019-04-10T03:52:57.926Z,15.47
2019-04-10T03:55:25.390Z,15.93
2019-04-10T03:57:53.362Z,15.63
2019-04-10T04:00:21.056Z,14.73
2019-04-10T04:02:48.528Z,15.70
2019-04-10T04:05:15.805Z,15.40
2019-04-10T04:07:43.213Z,15.83
2019-04-10T04:10:10.878Z,16.43
2019-04-10T04:12:39.524Z,16.13
2019-04-10T04:15:06.973Z,15.30
2019-04-10T04:17:34.277Z,17.43
2019-04-10T04:20:02.513Z,15.17
2019-04-10T04:22:30.593Z,15.57
2019-04-10T04:24:58.211Z,16.57
2019-04-10T04:27:25.688Z,16.03
2019-04-10T04:29:52.958Z,16.67
2019-04-10T04:32:20.285Z,16.27
2019-04-10T04:34:47.650Z,16.43
2019-04-10T04:37:14.960Z,16.40
2019-04-10T04:39:43.274Z,16.97
2019-04-10T04:42:10.706Z,16.67
2019-04-10T04:44:38.022Z,16.87
2019-04-10T04:47:06.283Z,16.13
2019-04-10T04:49:33.730Z,17.23
2019-04-10T04:52:01.014Z,16.40
2019-04-10T04:54:28.913Z,16.17
2019-04-10T04:56:56.354Z,17.93
2019-04-10T04:59:23.931Z,16.97
2019-04-10T05:01:51.359Z,16.50
2019-04-10T05:04:19.365Z,16.83
2019-04-10T05:06:47.711Z,16.77
2019-04-10T05:09:27.282Z,16.10
2019-04-10T05:11:44.797Z,18.13
2019-04-10T05:14:13.189Z,17.17
2019-04-10T05:16:41.564Z,17.43
2019-04-10T05:19:10.167Z,17.97
2019-04-10T05:21:37.684Z,18.70
2019-04-10T05:24:05.283Z,17.10
2019-04-10T05:26:32.700Z,17.17
2019-04-10T05:29:00.555Z,17.37
2019-04-10T05:31:27.872Z,17.97
2019-04-10T05:33:55.369Z,17.77
2019-04-10T05:36:23.579Z,16.40
2019-04-10T05:38:51.137Z,17.70
2019-04-10T05:41:19.671Z,17.67
2019-04-10T05:43:47.154Z,16.43
2019-04-10T05:46:14.501Z,16.60
2019-04-10T05:48:41.977Z,16.87
2019-04-10T05:51:09.534Z,16.37
2019-04-10T05:53:36.976Z,15.50
2019-04-10T05:56:04.314Z,16.80
2019-04-10T05:58:31.594Z,15.70
2019-04-10T06:01:01.102Z,16.27
2019-04-10T06:03:28.431Z,16.10
2019-04-10T06:05:56.413Z,15.40
2019-04-10T06:08:25.825Z,15.23
2019-04-10T06:10:53.249Z,15.57
2019-04-10T06:13:20.524Z,15.20
2019-04-10T06:15:47.862Z,14.60
2019-04-10T06:18:15.342Z,15.63
2019-04-10T06:20:42.800Z,16.13
2019-04-10T06:23:10.139Z,16.17
2019-04-10T06:25:41.008Z,15.40
2019-04-10T06:28:07.340Z,15.90
2019-04-10T06:30:34.727Z,15.50
2019-04-10T06:33:02.220Z,15.97
2019-04-10T06:35:30.196Z,15.20
2019-04-10T06:37:58.750Z,16.90
2019-04-10T06:40:27.521Z,14.97
2019-04-10T06:42:56.921Z,15.33
2019-04-10T06:45:26.009Z,16.40
2019-04-10T06:47:53.374Z,15.77
2019-04-10T06:50:23.151Z,15.77
2019-04-10T06:52:51.338Z,16.57
2019-04-10T06:55:18.734Z,15.50
2019-04-10T06:57:53.030Z,15.40
2019-04-10T07:00:18.493Z,16.13
2019-04-10T07:02:46.381Z,15.03
2019-04-10T07:05:15.025Z,15.40
2019-04-10T07:07:51.252Z,15.77
2019-04-10T07:10:24.383Z,15.60
2019-04-10T07:12:41.737Z,15.10
2019-04-10T07:15:10.538Z,15.30
2019-04-10T07:17:41.258Z,16.13
2019-04-10T07:20:07.653Z,15.63
2019-04-10T07:22:34.987Z,16.00
2019-04-10T07:25:02.868Z,14.90
2019-04-10T07:27:33.545Z,15.60
2019-04-10T07:29:59.878Z,15.73
2019-04-10T07:32:27.828Z,16.90
2019-04-10T07:34:59.208Z,16.23
2019-04-10T07:37:25.521Z,15.48
2019-04-10T07:39:53.449Z,16.53
2019-04-10T07:42:28.409Z,15.45
2019-04-10T07:44:50.047Z,14.93
2019-04-10T07:47:17.509Z,15.32
2019-04-10T07:49:44.914Z,15.50
2019-04-10T07:52:12.587Z,15.28
2019-04-10T07:54:42.523Z,15.17
2019-04-10T07:57:09.116Z,15.95
2019-04-10T07:59:37.508Z,15.87
2019-04-10T08:02:07.211Z,15.67
2019-04-10T08:04:35.240Z,15.40
2019-04-10T08:07:03.090Z,16.27
2019-04-10T08:09:30.462Z,16.80
2019-04-10T08:11:58.733Z,14.73
2019-04-10T08:14:27.222Z,15.70
2019-04-10T08:16:55.317Z,15.63
2019-04-10T08:19:25.293Z,15.70
2019-04-10T08:21:52.823Z,14.47
2019-04-10T08:24:20.334Z,16.57
2019-04-10T08:26:47.763Z,15.93
2019-04-10T08:29:16.005Z,15.00
2019-04-10T08:31:44.280Z,14.90
2019-04-10T08:34:11.669Z,16.50
2019-04-10T08:36:39.482Z,16.20
2019-04-10T08:39:06.890Z,16.27
2019-04-10T08:41:35.147Z,17.00
2019-04-10T08:44:02.587Z,15.70
2019-04-10T08:46:30.179Z,16.87
2019-04-10T08:48:58.077Z,15.70
2019-04-10T08:51:25.699Z,16.33
2019-04-10T08:53:55.036Z,16.97
2019-04-10T08:56:22.634Z,16.27
2019-04-10T08:58:50.007Z,15.50
2019-04-10T09:01:17.459Z,16.57
2019-04-10T09:03:44.955Z,16.27
2019-04-10T09:06:13.277Z,17.17
2019-04-10T09:08:41.992Z,15.43
2019-04-10T09:11:09.493Z,16.70
2019-04-10T09:13:36.860Z,16.00
2019-04-10T09:16:04.557Z,16.33
2019-04-10T09:18:31.927Z,16.07
2019-04-10T09:20:59.452Z,15.63
2019-04-10T09:23:37.410Z,16.97
2019-04-10T09:25:56.059Z,15.10
2019-04-10T09:28:24.346Z,16.77
2019-04-10T09:30:51.755Z,16.50
2019-04-10T09:33:24.252Z,15.87
2019-04-10T09:35:48.854Z,16.67
2019-04-10T09:38:16.771Z,16.70
2019-04-10T09:40:44.715Z,15.70
2019-04-10T09:43:12.056Z,16.73
2019-04-10T09:45:39.368Z,17.30
2019-04-10T09:48:06.766Z,17.13
2019-04-10T09:50:35.306Z,16.87
2019-04-10T09:53:02.751Z,16.00
2019-04-10T09:55:30.092Z,16.67
2019-04-10T09:57:57.534Z,17.73
2019-04-10T10:00:27.726Z,16.87
2019-04-10T10:02:55.242Z,16.07
2019-04-10T10:05:22.567Z,17.27
2019-04-10T10:07:50.655Z,16.63
2019-04-10T10:10:18.085Z,16.77
2019-04-10T10:12:45.373Z,17.67
2019-04-10T10:15:13.477Z,16.70
2019-04-10T10:17:41.245Z,16.83
2019-04-10T10:20:11.306Z,17.37
2019-04-10T10:22:39.041Z,15.80
2019-04-10T10:25:06.990Z,17.43
2019-04-10T10:27:34.428Z,16.63
2019-04-10T10:30:02.223Z,17.10
2019-04-10T10:32:29.822Z,17.30
2019-04-10T10:34:57.148Z,18.13
2019-04-10T10:37:24.583Z,17.13
2019-04-10T10:39:52.830Z,17.27
2019-04-10T10:42:21.250Z,17.25
2019-04-10T10:44:48.706Z,17.80
2019-04-10T10:47:16.020Z,17.32
2019-04-10T10:49:44.386Z,17.05
2019-04-10T10:52:11.791Z,16.80
2019-04-10T10:54:39.104Z,17.10
2019-04-10T10:57:06.974Z,18.30
2019-04-10T10:59:35.557Z,18.07
2019-04-10T11:02:04.330Z,17.52
2019-04-10T11:04:31.813Z,17.07
2019-04-10T11:07:00.946Z,18.12
2019-04-10T11:09:28.736Z,16.83
2019-04-10T11:11:56.066Z,17.13
2019-04-10T11:14:23.717Z,16.73
2019-04-10T11:16:51.642Z,17.47
2019-04-10T11:19:19.804Z,17.40
2019-04-10T11:21:47.295Z,17.13
2019-04-10T11:24:14.996Z,17.10
2019-04-10T11:26:42.699Z,17.43
2019-04-10T11:29:11.837Z,17.47
2019-04-10T11:31:39.657Z,16.67
2019-04-10T11:34:08.280Z,17.13
2019-04-10T11:36:36.267Z,15.87
2019-04-10T11:39:16.141Z,17.07
2019-04-10T11:41:37.233Z,16.87
2019-04-10T11:44:04.677Z,16.17
2019-04-10T11:46:32.261Z,16.87
2019-04-10T11:49:00.847Z,16.10
2019-04-10T11:51:31.540Z,15.40
2019-04-10T11:53:59.080Z,15.10
2019-04-10T11:56:29.124Z,16.03
2019-04-10T11:58:56.918Z,16.73
2019-04-10T12:01:25.509Z,17.70
2019-04-10T12:03:56.157Z,17.80
2019-04-10T12:06:25.000Z,17.73
2019-04-10T12:11:21.668Z,16.97
2019-04-10T12:13:50.380Z,17.07
2019-04-10T12:16:17.823Z,16.80
2019-04-10T12:18:45.523Z,16.50
2019-04-10T12:21:13.530Z,17.43
2019-04-10T12:23:40.986Z,16.57
2019-04-10T12:26:09.551Z,16.37
2019-04-10T12:28:38.091Z,18.00
2019-04-10T12:31:06.012Z,16.25
2019-04-10T12:33:33.759Z,16.67
2019-04-10T12:36:01.126Z,15.70
2019-04-10T12:38:28.454Z,16.48
2019-04-10T12:40:55.736Z,17.37
2019-04-10T12:43:23.205Z,16.73
2019-04-10T12:45:50.739Z,17.62
2019-04-10T12:48:18.770Z,16.95
2019-04-10T12:50:46.153Z,17.48
2019-04-10T12:53:13.597Z,17.82
2019-04-10T12:55:41.771Z,17.10
2019-04-10T12:58:13.550Z,17.70
2019-04-10T13:00:38.476Z,16.65
2019-04-10T13:03:06.877Z,16.47
2019-04-10T13:05:35.621Z,17.83
2019-04-10T13:08:14.717Z,16.85
2019-04-10T13:10:33.571Z,17.63
2019-04-10T13:13:01.948Z,17.73
2019-04-10T13:15:29.752Z,16.87
2019-04-10T13:17:57.536Z,16.70
2019-04-10T13:20:26.058Z,17.67
2019-04-10T13:22:53.428Z,17.77
2019-04-10T13:25:21.854Z,17.10
2019-04-10T13:27:49.226Z,16.83
2019-04-10T13:30:16.635Z,17.80
2019-04-10T13:32:44.467Z,17.27
2019-04-10T13:35:12.187Z,17.73
2019-04-10T13:37:39.566Z,17.67
2019-04-10T13:40:07.763Z,17.47
2019-04-10T13:42:35.171Z,17.37
2019-04-10T13:45:02.863Z,17.60
2019-04-10T13:47:30.547Z,17.90
2019-04-10T13:49:58.056Z,17.50
2019-04-10T13:52:25.929Z,17.00
2019-04-10T13:54:53.408Z,17.33
2019-04-10T13:57:20.740Z,17.73
2019-04-10T13:59:49.009Z,18.00
2019-04-10T14:02:25.653Z,17.33
2019-04-10T14:04:53.448Z,18.37
2019-04-10T14:07:22.008Z,17.47
2019-04-10T14:09:52.011Z,18.70
2019-04-10T14:12:18.710Z,17.03
2019-04-10T14:14:46.122Z,18.07
2019-04-10T14:17:13.408Z,17.87
2019-04-10T14:19:41.513Z,18.13
2019-04-10T14:22:09.277Z,17.73
2019-04-10T14:24:42.835Z,19.70
2019-04-10T14:27:12.703Z,17.95
2019-04-10T14:29:40.771Z,19.03
2019-04-10T14:32:11.196Z,19.00
2019-04-10T14:34:38.847Z,17.37
2019-04-10T14:37:09.965Z,18.23
2019-04-10T14:39:37.638Z,18.43
2019-04-10T14:42:04.974Z,17.40
2019-04-10T14:44:32.711Z,19.15
2019-04-10T14:47:00.252Z,18.50
2019-04-10T14:49:27.662Z,18.95
2019-04-10T14:51:54.985Z,18.83
2019-04-10T14:54:22.248Z,17.03
2019-04-10T14:56:50.503Z,18.03
2019-04-10T14:59:17.874Z,18.67
2019-04-10T15:01:46.243Z,18.70
2019-04-10T15:04:13.662Z,19.23
2019-04-10T15:06:41.733Z,17.92
2019-04-10T15:09:22.174Z,17.90
2019-04-10T15:11:46.839Z,18.60
2019-04-10T15:14:15.216Z,17.10
2019-04-10T15:16:52.990Z,18.90
2019-04-10T15:19:13.152Z,18.97
2019-04-10T15:21:40.453Z,17.07
2019-04-10T15:24:08.920Z,18.23
2019-04-10T15:26:36.292Z,18.00
2019-04-10T15:29:03.784Z,18.23
2019-04-10T15:31:31.302Z,17.63
2019-04-10T15:33:58.629Z,17.77
2019-04-10T15:36:26.513Z,18.13
2019-04-10T15:38:54.619Z,17.60
2019-04-10T15:41:22.991Z,19.13
2019-04-10T15:43:51.713Z,18.87
2019-04-10T15:46:19.204Z,18.63
2019-04-10T15:48:46.654Z,18.17
2019-04-10T15:51:14.194Z,18.17
2019-04-10T15:53:41.528Z,17.87
2019-04-10T15:56:09.665Z,18.07
2019-04-10T15:58:37.030Z,18.60
2019-04-10T16:01:06.181Z,18.83
2019-04-10T16:03:34.494Z,17.17
2019-04-10T16:06:02.110Z,18.07
2019-04-10T16:08:29.430Z,19.40
2019-04-10T16:11:17.547Z,18.40
2019-04-10T16:13:46.866Z,18.37
2019-04-10T16:16:40.310Z,18.00
2019-04-10T16:19:18.478Z,17.73
2019-04-10T16:21:46.906Z,19.10
2019-04-10T16:24:14.482Z,18.43
2019-04-10T16:26:43.226Z,20.93
2019-04-10T16:29:11.628Z,19.63
2019-04-10T16:31:39.701Z,19.50
2019-04-10T16:34:07.299Z,19.00
2019-04-10T16:36:35.220Z,19.30
2019-04-10T16:39:05.182Z,19.77
2019-04-10T16:41:33.316Z,18.20
2019-04-10T16:44:00.675Z,19.10
2019-04-10T16:46:27.975Z,19.60
2019-04-10T16:48:56.034Z,19.47
2019-04-10T16:51:23.985Z,20.23
2019-04-10T16:53:51.801Z,20.40
2019-04-10T16:56:19.175Z,19.93
2019-04-10T16:58:46.521Z,19.20
2019-04-10T17:01:14.657Z,19.60
2019-04-10T17:03:42.148Z,19.90
2019-04-10T17:06:10.100Z,20.33
2019-04-10T17:08:38.663Z,21.47
2019-04-10T17:11:07.163Z,20.67
2019-04-10T17:13:34.910Z,21.10
2019-04-10T17:16:02.401Z,20.80
2019-04-10T17:18:30.859Z,21.27
2019-04-10T17:20:58.214Z,20.73
2019-04-10T17:23:26.624Z,21.00
2019-04-10T17:25:54.820Z,21.83
2019-04-10T17:28:24.574Z,21.23
2019-04-10T17:30:51.900Z,21.47
2019-04-10T17:33:20.569Z,20.60
2019-04-10T17:35:48.054Z,20.73
2019-04-10T17:38:15.367Z,20.77
2019-04-10T17:40:48.756Z,20.77
2019-04-10T17:43:12.852Z,20.83
2019-04-10T17:45:40.654Z,21.23
2019-04-10T17:48:08.021Z,21.37
2019-04-10T17:50:35.365Z,21.20
2019-04-10T17:53:03.149Z,20.70
2019-04-10T17:55:31.489Z,20.83
2019-04-10T17:57:59.010Z,21.83
2019-04-10T18:00:35.562Z,22.13
2019-04-10T18:03:03.454Z,21.37
2019-04-10T18:05:30.927Z,21.73
2019-04-10T18:07:58.699Z,22.03
2019-04-10T18:10:34.390Z,22.93
2019-04-10T18:12:56.440Z,24.07
2019-04-10T18:15:24.192Z,24.77
2019-04-10T18:17:51.551Z,25.00
2019-04-10T18:20:19.890Z,25.07
2019-04-10T18:22:47.501Z,23.20
2019-04-10T18:25:15.886Z,26.40
2019-04-10T18:27:43.254Z,26.40
2019-04-10T18:30:10.991Z,26.03
2019-04-10T18:32:40.130Z,24.27
2019-04-10T18:35:08.781Z,22.93
2019-04-10T18:37:37.082Z,23.40
2019-04-10T18:40:05.288Z,21.03
2019-04-10T18:42:32.925Z,23.30
2019-04-10T18:45:01.788Z,20.80
2019-04-10T18:47:32.027Z,22.37
2019-04-10T18:49:58.476Z,20.50
2019-04-10T18:52:25.852Z,20.30
2019-04-10T18:54:54.057Z,21.73
2019-04-10T18:57:22.029Z,21.47
2019-04-10T18:59:59.361Z,22.00
2019-04-10T19:02:46.190Z,22.20
2019-04-10T19:05:16.757Z,20.60
2019-04-10T19:07:44.088Z,21.13
2019-04-10T19:10:12.897Z,22.23
2019-04-10T19:12:41.103Z,21.33
2019-04-10T19:15:08.895Z,20.93
2019-04-10T19:17:37.141Z,20.17
2019-04-10T19:20:07.101Z,24.87
2019-04-10T19:22:34.801Z,23.63
2019-04-10T19:25:03.112Z,23.57
2019-04-10T19:27:31.795Z,20.77
2019-04-10T19:29:59.335Z,21.70
2019-04-10T19:32:35.412Z,21.70
2019-04-10T19:35:04.657Z,21.70
2019-04-10T19:37:32.455Z,21.83
2019-04-10T19:39:59.940Z,21.50
2019-04-10T19:42:27.374Z,21.97
2019-04-10T19:44:55.227Z,21.00
2019-04-10T19:47:23.046Z,22.53
2019-04-10T19:49:50.451Z,21.37
2019-04-10T19:52:17.882Z,24.20
2019-04-10T19:54:45.215Z,21.87
2019-04-10T19:57:15.277Z,21.67
2019-04-10T19:59:43.964Z,21.30
2019-04-10T20:02:11.488Z,22.67
2019-04-10T20:04:38.854Z,22.77
2019-04-10T20:07:06.941Z,22.50
2019-04-10T20:09:34.665Z,22.77
2019-04-10T20:12:02.452Z,22.00
2019-04-10T20:14:30.588Z,22.70
2019-04-10T20:16:58.040Z,20.87
2019-04-10T20:19:26.546Z,22.33
2019-04-10T20:21:54.518Z,21.53
2019-04-10T20:24:22.889Z,21.17
2019-04-10T20:26:50.438Z,21.90
2019-04-10T20:29:19.721Z,22.57
2019-04-10T20:31:48.084Z,21.83
2019-04-10T20:34:15.778Z,21.87
2019-04-10T20:36:43.339Z,22.73
2019-04-10T20:39:12.896Z,23.00
2019-04-10T20:41:49.741Z,23.50
2019-04-10T20:44:09.719Z,22.60
2019-04-10T20:46:38.111Z,24.70
2019-04-10T20:49:07.990Z,24.10
2019-04-10T20:51:34.911Z,24.07
2019-04-10T20:54:02.344Z,22.93
2019-04-10T20:56:30.667Z,23.43
2019-04-10T20:58:59.281Z,24.20
2019-04-10T21:01:26.824Z,22.43
2019-04-10T21:03:54.146Z,23.70
2019-04-10T21:06:21.465Z,23.33
2019-04-10T21:08:48.790Z,23.43
2019-04-10T21:11:16.227Z,22.87
2019-04-10T21:13:44.391Z,24.97
2019-04-10T21:16:13.582Z,23.43
2019-04-10T21:18:41.860Z,23.73
2019-04-10T21:21:10.289Z,23.80
2019-04-10T21:23:38.098Z,24.00
2019-04-10T21:26:06.130Z,23.90
2019-04-10T21:28:34.697Z,23.17
2019-04-10T21:31:20.102Z,23.27
2019-04-10T21:34:15.280Z,24.07
2019-04-10T21:36:43.421Z,22.97
2019-04-10T21:39:12.186Z,22.80
2019-04-10T21:41:39.817Z,22.70
2019-04-10T21:44:08.627Z,22.30
2019-04-10T21:46:36.769Z,22.90
2019-04-10T21:49:04.339Z,23.13
2019-04-10T21:51:33.482Z,23.70
2019-04-10T21:54:02.121Z,24.10
2019-04-10T21:56:29.623Z,24.40
2019-04-10T21:58:57.061Z,22.60
2019-04-10T22:01:24.693Z,24.23
2019-04-10T22:03:52.264Z,24.10
2019-04-10T22:06:45.265Z,23.93
2019-04-10T22:09:47.506Z,22.53
2019-04-10T22:12:25.896Z,21.80
2019-04-10T22:14:50.234Z,22.20
2019-04-10T22:17:17.783Z,23.90
2019-04-10T22:19:45.303Z,23.07
2019-04-10T22:22:12.870Z,23.30
2019-04-10T22:24:40.564Z,24.70
2019-04-10T22:27:09.205Z,24.20
2019-04-10T22:29:36.935Z,25.27
2019-04-10T22:32:04.299Z,22.80
2019-04-10T22:34:32.077Z,23.43
2019-04-10T22:37:00.145Z,23.83
2019-04-10T22:39:27.554Z,24.10
2019-04-10T22:41:56.881Z,24.53
2019-04-10T22:44:34.661Z,23.63
2019-04-10T22:46:54.414Z,24.27
2019-04-10T22:49:22.193Z,24.10
2019-04-10T22:51:49.682Z,23.60
2019-04-10T22:54:19.877Z,23.77
2019-04-10T22:56:47.782Z,22.47
2019-04-10T22:59:15.626Z,25.13
2019-04-10T23:01:43.343Z,25.27
2019-04-10T23:04:10.770Z,22.97
2019-04-10T23:06:38.159Z,24.30
2019-04-10T23:09:08.433Z,24.63
2019-04-10T23:11:41.733Z,23.90
2019-04-10T23:14:06.797Z,24.63
2019-04-10T23:16:34.347Z,23.90
2019-04-10T23:19:01.732Z,23.37
2019-04-10T23:21:29.018Z,24.53
2019-04-10T23:23:57.112Z,24.43
2019-04-10T23:26:24.935Z,24.03
2019-04-10T23:28:52.676Z,24.77
2019-04-10T23:31:20.191Z,23.90
2019-04-10T23:33:48.319Z,24.27
2019-04-10T23:36:16.047Z,23.53
2019-04-10T23:38:43.815Z,23.97
2019-04-10T23:41:11.603Z,25.87
2019-04-10T23:43:39.871Z,23.27
2019-04-10T23:46:08.262Z,23.13
2019-04-10T23:48:37.019Z,24.20
2019-04-10T23:51:04.969Z,23.63
2019-04-10T23:53:32.856Z,23.23
2019-04-10T23:56:00.371Z,22.43
2019-04-10T23:58:27.692Z,22.13
